sensor_id;sensor_type;location;lat;lon;timestamp;P1;durP1;ratioP1;P2;durP2;ratioP2
72645;SDS011;60687;53.876;10.674;2023-05-20T00:02:38;4.25;;;1.40;;
72645;SDS011;60687;53.876;10.674;2023-05-20T00:12:41;6.47;;;1.48;;
72645;SDS011;60687;53.876;10.674;2023-05-20T00:22:44;5.30;;;1.33;;
72645;SDS011;60687;53.876;10.674;2023-05-20T00:32:46;4.77;;;1.40;;
72645;SDS011;60687;53.876;10.674;2023-05-20T00:42:50;4.90;;;1.30;;
72645;SDS011;60687;53.876;10.674;2023-05-20T00:52:52;4.77;;;1.30;;
72645;SDS011;60687;53.876;10.674;2023-05-20T01:02:57;4.33;;;1.23;;
72645;SDS011;60687;53.876;10.674;2023-05-20T01:13:00;4.32;;;1.00;;
72645;SDS011;60687;53.876;10.674;2023-05-20T01:23:10;4.57;;;1.20;;
72645;SDS011;60687;53.876;10.674;2023-05-20T01:33:15;3.40;;;1.20;;
72645;SDS011;60687;53.876;10.674;2023-05-20T01:43:25;5.18;;;1.48;;
72645;SDS011;60687;53.876;10.674;2023-05-20T01:53:28;9.45;;;1.38;;
72645;SDS011;60687;53.876;10.674;2023-05-20T02:03:32;5.00;;;1.30;;
72645;SDS011;60687;53.876;10.674;2023-05-20T02:13:34;4.93;;;1.13;;
72645;SDS011;60687;53.876;10.674;2023-05-20T02:23:38;5.10;;;1.38;;
72645;SDS011;60687;53.876;10.674;2023-05-20T02:33:41;6.80;;;1.83;;
72645;SDS011;60687;53.876;10.674;2023-05-20T02:43:44;4.57;;;1.10;;
72645;SDS011;60687;53.876;10.674;2023-05-20T02:53:47;5.63;;;1.55;;
72645;SDS011;60687;53.876;10.674;2023-05-20T03:03:51;4.73;;;1.30;;
72645;SDS011;60687;53.876;10.674;2023-05-20T03:13:53;6.77;;;1.37;;
72645;SDS011;60687;53.876;10.674;2023-05-20T03:23:57;4.30;;;1.60;;
72645;SDS011;60687;53.876;10.674;2023-05-20T03:33:59;5.85;;;1.60;;
72645;SDS011;60687;53.876;10.674;2023-05-20T03:44:04;6.23;;;1.47;;
72645;SDS011;60687;53.876;10.674;2023-05-20T03:54:06;6.17;;;1.80;;
72645;SDS011;60687;53.876;10.674;2023-05-20T04:04:10;5.00;;;1.30;;
72645;SDS011;60687;53.876;10.674;2023-05-20T04:14:13;4.03;;;1.13;;
72645;SDS011;60687;53.876;10.674;2023-05-20T04:24:17;6.27;;;1.70;;
72645;SDS011;60687;53.876;10.674;2023-05-20T04:34:24;6.60;;;1.50;;
72645;SDS011;60687;53.876;10.674;2023-05-20T04:44:31;5.10;;;1.50;;
72645;SDS011;60687;53.876;10.674;2023-05-20T04:54:34;6.00;;;1.20;;
72645;SDS011;60687;53.876;10.674;2023-05-20T05:04:38;6.57;;;1.83;;
72645;SDS011;60687;53.876;10.674;2023-05-20T05:14:40;5.45;;;1.33;;
72645;SDS011;60687;53.876;10.674;2023-05-20T05:24:45;6.40;;;1.80;;
72645;SDS011;60687;53.876;10.674;2023-05-20T05:34:47;5.60;;;1.60;;
72645;SDS011;60687;53.876;10.674;2023-05-20T05:44:51;6.70;;;1.70;;
72645;SDS011;60687;53.876;10.674;2023-05-20T05:54:54;6.30;;;1.60;;
72645;SDS011;60687;53.876;10.674;2023-05-20T06:04:58;6.10;;;1.73;;
72645;SDS011;60687;53.876;10.674;2023-05-20T06:15:01;7.40;;;1.83;;
72645;SDS011;60687;53.876;10.674;2023-05-20T06:25:05;10.40;;;2.23;;
72645;SDS011;60687;53.876;10.674;2023-05-20T06:35:10;5.97;;;1.70;;
72645;SDS011;60687;53.876;10.674;2023-05-20T06:45:14;6.82;;;1.73;;
72645;SDS011;60687;53.876;10.674;2023-05-20T06:55:25;5.03;;;1.67;;
72645;SDS011;60687;53.876;10.674;2023-05-20T07:05:29;7.30;;;1.60;;
72645;SDS011;60687;53.876;10.674;2023-05-20T07:15:31;7.20;;;1.83;;
72645;SDS011;60687;53.876;10.674;2023-05-20T07:25:35;5.72;;;1.65;;
72645;SDS011;60687;53.876;10.674;2023-05-20T07:35:38;7.63;;;2.00;;
72645;SDS011;60687;53.876;10.674;2023-05-20T07:45:41;5.50;;;1.73;;
72645;SDS011;60687;53.876;10.674;2023-05-20T07:55:44;6.60;;;2.00;;
72645;SDS011;60687;53.876;10.674;2023-05-20T08:05:48;7.03;;;2.30;;
72645;SDS011;60687;53.876;10.674;2023-05-20T08:15:51;7.80;;;3.00;;
72645;SDS011;60687;53.876;10.674;2023-05-20T08:25:55;7.80;;;2.85;;
72645;SDS011;60687;53.876;10.674;2023-05-20T08:36:02;7.43;;;2.20;;
72645;SDS011;60687;53.876;10.674;2023-05-20T08:46:07;5.53;;;1.60;;
72645;SDS011;60687;53.876;10.674;2023-05-20T08:56:12;7.30;;;2.03;;
72645;SDS011;60687;53.876;10.674;2023-05-20T09:06:17;5.47;;;1.60;;
72645;SDS011;60687;53.876;10.674;2023-05-20T09:16:20;7.90;;;2.30;;
72645;SDS011;60687;53.876;10.674;2023-05-20T09:26:25;6.97;;;2.00;;
72645;SDS011;60687;53.876;10.674;2023-05-20T09:36:28;5.95;;;1.95;;
72645;SDS011;60687;53.876;10.674;2023-05-20T09:46:33;7.67;;;2.03;;
72645;SDS011;60687;53.876;10.674;2023-05-20T09:56:36;7.93;;;2.50;;
72645;SDS011;60687;53.876;10.674;2023-05-20T10:06:45;7.50;;;2.42;;
72645;SDS011;60687;53.876;10.674;2023-05-20T10:17:09;7.10;;;2.13;;
72645;SDS011;60687;53.876;10.674;2023-05-20T10:27:19;6.63;;;2.27;;
72645;SDS011;60687;53.876;10.674;2023-05-20T10:37:25;6.97;;;2.27;;
72645;SDS011;60687;53.876;10.674;2023-05-20T10:47:31;7.30;;;1.75;;
72645;SDS011;60687;53.876;10.674;2023-05-20T10:57:34;7.77;;;1.93;;
72645;SDS011;60687;53.876;10.674;2023-05-20T11:07:39;8.70;;;2.20;;
72645;SDS011;60687;53.876;10.674;2023-05-20T11:17:50;9.80;;;2.40;;
72645;SDS011;60687;53.876;10.674;2023-05-20T11:27:55;6.93;;;2.03;;
72645;SDS011;60687;53.876;10.674;2023-05-20T11:38:00;7.83;;;2.10;;
72645;SDS011;60687;53.876;10.674;2023-05-20T11:48:05;7.90;;;2.35;;
72645;SDS011;60687;53.876;10.674;2023-05-20T11:58:08;7.13;;;2.10;;
72645;SDS011;60687;53.876;10.674;2023-05-20T12:08:12;8.17;;;2.23;;
72645;SDS011;60687;53.876;10.674;2023-05-20T12:18:14;9.18;;;2.22;;
72645;SDS011;60687;53.876;10.674;2023-05-20T12:28:18;6.85;;;2.00;;
72645;SDS011;60687;53.876;10.674;2023-05-20T12:38:20;8.90;;;2.30;;
72645;SDS011;60687;53.876;10.674;2023-05-20T12:48:24;8.40;;;2.20;;
72645;SDS011;60687;53.876;10.674;2023-05-20T12:58:26;7.22;;;2.33;;
72645;SDS011;60687;53.876;10.674;2023-05-20T13:08:30;6.97;;;2.00;;
72645;SDS011;60687;53.876;10.674;2023-05-20T13:18:32;9.13;;;2.07;;
72645;SDS011;60687;53.876;10.674;2023-05-20T13:28:36;7.75;;;2.20;;
72645;SDS011;60687;53.876;10.674;2023-05-20T13:38:38;7.50;;;1.73;;
72645;SDS011;60687;53.876;10.674;2023-05-20T13:48:42;7.50;;;1.80;;
72645;SDS011;60687;53.876;10.674;2023-05-20T13:58:44;6.68;;;1.90;;
72645;SDS011;60687;53.876;10.674;2023-05-20T14:08:48;6.13;;;1.65;;
72645;SDS011;60687;53.876;10.674;2023-05-20T14:18:50;8.80;;;2.13;;
72645;SDS011;60687;53.876;10.674;2023-05-20T14:28:53;7.33;;;1.87;;
72645;SDS011;60687;53.876;10.674;2023-05-20T14:38:56;6.90;;;1.65;;
72645;SDS011;60687;53.876;10.674;2023-05-20T14:48:59;5.77;;;1.60;;
72645;SDS011;60687;53.876;10.674;2023-05-20T14:59:02;5.70;;;1.50;;
72645;SDS011;60687;53.876;10.674;2023-05-20T15:09:05;8.32;;;2.20;;
72645;SDS011;60687;53.876;10.674;2023-05-20T15:19:08;6.03;;;1.30;;
72645;SDS011;60687;53.876;10.674;2023-05-20T15:29:11;8.60;;;1.73;;
72645;SDS011;60687;53.876;10.674;2023-05-20T15:39:14;7.82;;;1.80;;
72645;SDS011;60687;53.876;10.674;2023-05-20T15:49:17;6.97;;;1.92;;
72645;SDS011;60687;53.876;10.674;2023-05-20T15:59:20;9.33;;;2.13;;
72645;SDS011;60687;53.876;10.674;2023-05-20T16:09:24;7.67;;;2.07;;
72645;SDS011;60687;53.876;10.674;2023-05-20T16:19:27;7.22;;;1.90;;
72645;SDS011;60687;53.876;10.674;2023-05-20T16:29:30;8.50;;;1.60;;
72645;SDS011;60687;53.876;10.674;2023-05-20T16:39:34;7.10;;;1.50;;
72645;SDS011;60687;53.876;10.674;2023-05-20T16:49:37;5.53;;;1.40;;
72645;SDS011;60687;53.876;10.674;2023-05-20T16:59:39;5.77;;;1.40;;
72645;SDS011;60687;53.876;10.674;2023-05-20T17:09:43;5.37;;;1.80;;
72645;SDS011;60687;53.876;10.674;2023-05-20T17:19:45;6.25;;;1.33;;
72645;SDS011;60687;53.876;10.674;2023-05-20T17:29:49;8.55;;;1.70;;
72645;SDS011;60687;53.876;10.674;2023-05-20T17:39:51;6.50;;;1.90;;
72645;SDS011;60687;53.876;10.674;2023-05-20T17:49:55;6.20;;;1.37;;
72645;SDS011;60687;53.876;10.674;2023-05-20T17:59:59;8.23;;;1.80;;
72645;SDS011;60687;53.876;10.674;2023-05-20T18:10:03;6.80;;;1.80;;
72645;SDS011;60687;53.876;10.674;2023-05-20T18:20:06;7.93;;;2.23;;
72645;SDS011;60687;53.876;10.674;2023-05-20T18:30:11;6.40;;;1.60;;
72645;SDS011;60687;53.876;10.674;2023-05-20T18:40:15;8.10;;;1.63;;
72645;SDS011;60687;53.876;10.674;2023-05-20T18:50:19;8.10;;;1.50;;
72645;SDS011;60687;53.876;10.674;2023-05-20T19:00:21;5.93;;;1.60;;
72645;SDS011;60687;53.876;10.674;2023-05-20T19:10:26;6.18;;;1.60;;
72645;SDS011;60687;53.876;10.674;2023-05-20T19:20:28;8.77;;;1.97;;
72645;SDS011;60687;53.876;10.674;2023-05-20T19:30:31;11.47;;;2.00;;
72645;SDS011;60687;53.876;10.674;2023-05-20T19:40:34;10.07;;;2.20;;
72645;SDS011;60687;53.876;10.674;2023-05-20T19:50:38;6.77;;;1.57;;
72645;SDS011;60687;53.876;10.674;2023-05-20T20:00:41;6.00;;;1.23;;
72645;SDS011;60687;53.876;10.674;2023-05-20T20:10:44;7.63;;;1.67;;
72645;SDS011;60687;53.876;10.674;2023-05-20T20:20:48;8.43;;;1.83;;
72645;SDS011;60687;53.876;10.674;2023-05-20T20:30:52;7.27;;;2.00;;
72645;SDS011;60687;53.876;10.674;2023-05-20T20:40:54;5.35;;;1.58;;
72645;SDS011;60687;53.876;10.674;2023-05-20T20:51:00;8.50;;;2.17;;
72645;SDS011;60687;53.876;10.674;2023-05-20T21:01:02;7.47;;;1.87;;
72645;SDS011;60687;53.876;10.674;2023-05-20T21:11:06;8.60;;;2.10;;
72645;SDS011;60687;53.876;10.674;2023-05-20T21:21:08;7.82;;;2.10;;
72645;SDS011;60687;53.876;10.674;2023-05-20T21:31:14;6.93;;;1.80;;
72645;SDS011;60687;53.876;10.674;2023-05-20T21:41:17;6.33;;;1.80;;
72645;SDS011;60687;53.876;10.674;2023-05-20T21:51:20;7.57;;;1.92;;
72645;SDS011;60687;53.876;10.674;2023-05-20T22:01:22;6.67;;;1.87;;
72645;SDS011;60687;53.876;10.674;2023-05-20T22:11:26;8.67;;;2.17;;
72645;SDS011;60687;53.876;10.674;2023-05-20T22:21:28;8.23;;;1.90;;
72645;SDS011;60687;53.876;10.674;2023-05-20T22:31:32;7.95;;;2.05;;
72645;SDS011;60687;53.876;10.674;2023-05-20T22:41:34;7.47;;;1.80;;
72645;SDS011;60687;53.876;10.674;2023-05-20T22:51:38;7.33;;;2.00;;
72645;SDS011;60687;53.876;10.674;2023-05-20T23:01:40;6.28;;;1.60;;
72645;SDS011;60687;53.876;10.674;2023-05-20T23:11:46;5.33;;;1.67;;
72645;SDS011;60687;53.876;10.674;2023-05-20T23:21:48;6.70;;;1.73;;
72645;SDS011;60687;53.876;10.674;2023-05-20T23:31:52;5.57;;;1.70;;
72645;SDS011;60687;53.876;10.674;2023-05-20T23:41:54;8.00;;;1.80;;
72645;SDS011;60687;53.876;10.674;2023-05-20T23:51:58;7.43;;;1.60;;
